createdAt,value
2018-12-04T07:18:00.382Z,99185.37
2018-12-04T07:20:35.809Z,99208.34
2018-12-04T07:23:11.372Z,99205.34
2018-12-04T07:25:46.694Z,99214.22
2018-12-04T07:28:23.000Z,99230.55
2018-12-04T07:30:57.830Z,99225.41
2018-12-04T07:33:33.704Z,99238.15
2018-12-04T07:36:09.143Z,99239.61
2018-12-04T07:38:45.493Z,99242.07
2018-12-04T07:41:21.229Z,99258.42
2018-12-04T07:43:57.631Z,99260.74
2018-12-04T07:46:34.493Z,99260.28
2018-12-04T07:49:10.099Z,99269.00
2018-12-04T07:51:45.229Z,99277.57
2018-12-04T07:54:20.679Z,99287.75
2018-12-04T07:56:57.249Z,99291.05
2018-12-04T07:59:32.711Z,99300.28
2018-12-04T08:02:08.207Z,99317.70
2018-12-04T08:04:44.095Z,99322.98
2018-12-04T08:07:20.434Z,99324.05
2018-12-04T08:09:56.134Z,99323.94
2018-12-04T08:12:34.013Z,99332.94
2018-12-04T08:15:10.791Z,99334.91
2018-12-04T08:17:54.563Z,99350.75
2018-12-04T08:20:29.898Z,99358.72
2018-12-04T08:23:05.432Z,99381.23
2018-12-04T08:25:41.185Z,99370.56
2018-12-04T08:28:16.577Z,99383.70
2018-12-04T08:30:52.161Z,99379.35
2018-12-04T08:33:27.923Z,99396.53
2018-12-04T08:36:03.198Z,99400.77
2018-12-04T08:38:38.841Z,99408.82
2018-12-04T08:41:15.021Z,99418.82
2018-12-04T08:43:51.231Z,99426.25
2018-12-04T08:46:26.278Z,99437.47
2018-12-04T08:49:02.773Z,99439.77
2018-12-04T08:51:38.280Z,99444.06
2018-12-04T08:54:14.086Z,99458.66
2018-12-04T08:56:49.449Z,99466.94
2018-12-04T08:59:25.755Z,99468.72
2018-12-04T09:02:04.642Z,99465.97
2018-12-04T09:04:40.312Z,99474.09
2018-12-04T09:07:17.755Z,99478.78
2018-12-04T09:09:53.116Z,99478.05
2018-12-04T09:12:28.600Z,99480.19
2018-12-04T09:15:05.389Z,99489.22
2018-12-04T09:17:40.707Z,99490.89
2018-12-04T09:20:16.416Z,99511.05
2018-12-04T09:22:51.837Z,99512.39
2018-12-04T09:25:28.682Z,99523.61
2018-12-04T09:28:04.197Z,99532.69
2018-12-04T09:30:40.065Z,99533.39
2018-12-04T09:33:16.233Z,99533.20
2018-12-04T09:35:53.210Z,99548.11
2018-12-04T09:38:29.603Z,99542.72
2018-12-04T09:41:05.371Z,99548.36
2018-12-04T09:43:40.797Z,99559.20
2018-12-04T09:46:17.437Z,99560.05
2018-12-04T09:48:53.331Z,99583.22
2018-12-04T09:51:28.475Z,99572.09
2018-12-04T09:54:05.862Z,99572.19
2018-12-04T09:56:40.862Z,99566.87
2018-12-04T09:59:16.549Z,99586.91
2018-12-04T10:01:55.329Z,99584.98
2018-12-04T10:04:31.146Z,99593.03
2018-12-04T10:07:07.571Z,99578.64
2018-12-04T10:09:42.942Z,99581.99
2018-12-04T10:12:18.986Z,99585.04
2018-12-04T10:14:57.410Z,99583.81
2018-12-04T10:17:32.485Z,99580.64
2018-12-04T10:20:09.543Z,99586.71
2018-12-04T10:22:44.605Z,99584.19
2018-12-04T10:25:19.825Z,99586.17
2018-12-04T10:27:56.434Z,99591.77
2018-12-04T10:30:32.439Z,99587.95
2018-12-04T10:33:08.029Z,99590.36
2018-12-04T10:35:44.967Z,99598.27
2018-12-04T10:38:20.863Z,99605.66
2018-12-04T10:40:56.876Z,99604.61
2018-12-04T10:43:32.461Z,99604.94
2018-12-04T10:46:07.894Z,99620.27
2018-12-04T10:48:44.246Z,99616.05
2018-12-04T10:51:20.162Z,99623.19
2018-12-04T10:53:55.755Z,99616.45
2018-12-04T10:56:31.642Z,99619.64
2018-12-04T10:59:07.889Z,99618.23
2018-12-04T11:01:48.824Z,99628.84
2018-12-04T11:04:24.254Z,99630.96
2018-12-04T11:07:00.746Z,99636.56
2018-12-04T11:09:36.583Z,99646.89
2018-12-04T11:12:12.346Z,99643.03
2018-12-04T11:14:48.125Z,99630.84
2018-12-04T11:17:23.594Z,99642.92
2018-12-04T11:19:58.929Z,99653.41
2018-12-04T11:22:35.026Z,99652.37
2018-12-04T11:25:10.289Z,99659.70
2018-12-04T11:27:46.447Z,99654.62
2018-12-04T11:30:23.397Z,99667.01
2018-12-04T11:32:58.820Z,99667.90
2018-12-04T11:35:35.444Z,99675.28
2018-12-04T11:38:12.136Z,99681.97
2018-12-04T11:40:47.470Z,99680.41
2018-12-04T11:43:23.190Z,99691.63
2018-12-04T11:45:58.569Z,99683.95
2018-12-04T11:48:34.279Z,99688.58
2018-12-04T11:51:10.715Z,99683.35
2018-12-04T11:56:32.222Z,99705.02
2018-12-04T11:59:08.698Z,99704.02
2018-12-04T12:01:44.651Z,99720.58
2018-12-04T12:04:20.481Z,99721.34
2018-12-04T12:06:56.533Z,99714.28
2018-12-04T12:09:32.091Z,99713.77
2018-12-04T12:12:07.734Z,99729.63
2018-12-04T12:14:43.344Z,99734.49
2018-12-04T12:17:18.959Z,99736.42
2018-12-04T12:19:55.512Z,99737.95
2018-12-04T12:22:32.074Z,99741.14
2018-12-04T12:25:08.962Z,99746.69
2018-12-04T12:27:44.320Z,99741.72
2018-12-04T12:30:22.091Z,99760.78
2018-12-04T12:32:57.130Z,99773.64
2018-12-04T12:35:32.488Z,99781.71
2018-12-04T12:38:10.280Z,99780.26
2018-12-04T12:40:47.960Z,99795.16
2018-12-04T12:43:23.730Z,99785.25
2018-12-04T12:46:00.296Z,99798.86
2018-12-04T12:48:35.866Z,99805.13
2018-12-04T12:51:11.492Z,99810.37
2018-12-04T12:53:48.019Z,99818.97
2018-12-04T12:56:28.002Z,99818.61
2018-12-04T12:59:05.558Z,99813.97
2018-12-04T13:01:41.426Z,99832.19
2018-12-04T13:04:17.933Z,99842.54
2018-12-04T13:06:56.579Z,99848.83
2018-12-04T13:09:32.457Z,99857.56
2018-12-04T13:12:10.878Z,99862.69
2018-12-04T13:14:47.400Z,99858.28
2018-12-04T13:17:24.565Z,99850.32
2018-12-04T13:20:00.243Z,99846.92
2018-12-04T13:22:36.682Z,99856.34
2018-12-04T13:25:11.745Z,99865.97
2018-12-04T13:27:48.152Z,99866.28
2018-12-04T13:30:23.822Z,99870.55
2018-12-04T13:33:04.950Z,99883.87
2018-12-04T13:35:40.203Z,99881.87
2018-12-04T13:38:16.521Z,99882.95
2018-12-04T13:40:51.989Z,99890.68
2018-12-04T13:43:28.906Z,99891.77
2018-12-04T13:46:04.851Z,99895.58
2018-12-04T13:48:42.606Z,99894.30
2018-12-04T13:51:18.684Z,99900.08
2018-12-04T13:53:57.181Z,99902.76
2018-12-04T13:56:34.365Z,99905.64
2018-12-04T13:59:10.007Z,99912.84
2018-12-04T14:01:46.293Z,99904.91
2018-12-04T14:04:22.805Z,99923.02
2018-12-04T14:07:00.799Z,99924.84
2018-12-04T14:09:40.504Z,99937.55
2018-12-04T14:12:18.179Z,99946.42
2018-12-04T14:15:14.658Z,99822.23
2018-12-04T14:17:50.842Z,99957.12
2018-12-04T14:20:26.371Z,99948.41
2018-12-04T14:23:03.588Z,99951.33
2018-12-04T14:25:40.507Z,99969.56
2018-12-04T14:28:17.337Z,99970.94
2018-12-04T14:30:53.139Z,99978.58
2018-12-04T14:33:28.790Z,99978.39
2018-12-04T14:36:04.320Z,99988.55
2018-12-04T14:38:39.873Z,99994.61
2018-12-04T14:41:17.439Z,99999.88
2018-12-04T14:43:56.056Z,99995.95
2018-12-04T14:46:32.997Z,100004.97
2018-12-04T14:49:08.316Z,100012.04
2018-12-04T14:51:44.757Z,100007.16
2018-12-04T14:54:22.254Z,100014.51
2018-12-04T14:56:58.079Z,100017.08
2018-12-04T14:59:33.158Z,100016.27
2018-12-04T15:02:09.164Z,100027.36
2018-12-04T15:04:46.833Z,100020.05
2018-12-04T15:07:27.716Z,100022.01
2018-12-04T15:10:05.253Z,100028.41
2018-12-04T15:12:40.698Z,100036.39
2018-12-04T15:15:16.737Z,100045.92
2018-12-04T15:17:55.973Z,100055.34
2018-12-04T15:20:31.715Z,100055.93
2018-12-04T15:23:09.104Z,100069.19
2018-12-04T15:25:45.293Z,100076.45
2018-12-04T15:28:21.224Z,100088.95
2018-12-04T15:30:57.010Z,100081.59
2018-12-04T15:33:32.516Z,100085.46
2018-12-04T15:36:08.100Z,100091.98
2018-12-04T15:38:46.097Z,100099.39
2018-12-04T15:41:21.518Z,100117.03
2018-12-04T15:43:56.809Z,100123.90
2018-12-04T15:46:35.300Z,100133.94
2018-12-04T15:49:12.856Z,100133.03
2018-12-04T15:51:48.549Z,100144.38
2018-12-04T15:54:26.069Z,100126.90
2018-12-04T15:57:03.007Z,100142.28
2018-12-04T15:59:40.319Z,100144.44
2018-12-04T16:02:17.926Z,100148.58
2018-12-04T16:04:55.646Z,100155.80
2018-12-04T16:07:34.746Z,100156.34
2018-12-04T16:10:11.270Z,100155.59
2018-12-04T16:12:46.735Z,100158.01
2018-12-04T16:15:26.583Z,100163.25
2018-12-04T16:18:01.796Z,100170.50
2018-12-04T16:20:38.210Z,100178.98
2018-12-04T16:23:14.299Z,100180.20
2018-12-04T16:25:50.055Z,100181.61
2018-12-04T16:28:25.441Z,100193.97
2018-12-04T16:31:00.376Z,100196.21
2018-12-04T16:33:37.328Z,100194.66
2018-12-04T16:36:13.539Z,100206.22
2018-12-04T16:38:49.582Z,100204.33
2018-12-04T16:41:26.736Z,100208.06
2018-12-04T16:44:04.288Z,100221.44
2018-12-04T16:46:40.035Z,100219.95
2018-12-04T16:49:18.941Z,100223.59
2018-12-04T16:51:55.761Z,100230.95
2018-12-04T16:54:31.697Z,100236.32
2018-12-04T16:57:07.392Z,100241.76
2018-12-04T16:59:43.030Z,100250.39
2018-12-04T17:02:18.329Z,100254.41
2018-12-04T17:04:54.164Z,100258.55
2018-12-04T17:07:31.278Z,100268.47
2018-12-04T17:10:09.477Z,100270.52
2018-12-04T17:15:28.119Z,100281.86
2018-12-04T17:18:06.193Z,100278.46
2018-12-04T17:20:44.818Z,100290.83
2018-12-04T17:23:26.499Z,100292.45
2018-12-04T17:26:01.383Z,100295.59
2018-12-04T17:28:39.073Z,100301.67
2018-12-04T17:31:17.298Z,100303.42
2018-12-04T17:33:55.018Z,100310.68
2018-12-04T17:36:30.855Z,100311.50
2018-12-04T17:39:08.790Z,100315.45
2018-12-04T17:41:45.068Z,100314.64
2018-12-04T17:44:22.413Z,100317.41
2018-12-04T17:46:58.014Z,100322.98
2018-12-04T17:49:35.070Z,100330.03
2018-12-04T17:52:11.011Z,100325.45
2018-12-04T17:54:48.758Z,100326.91
2018-12-04T17:57:25.081Z,100330.68
2018-12-04T18:00:01.792Z,100330.30
2018-12-04T18:02:38.251Z,100335.88
2018-12-04T18:05:15.150Z,100342.19
2018-12-04T18:07:51.528Z,100338.59
2018-12-04T18:10:27.147Z,100353.53
2018-12-04T18:13:03.278Z,100349.59
2018-12-04T18:15:39.541Z,100356.98
2018-12-04T18:18:15.445Z,100351.38
2018-12-04T18:20:53.001Z,100355.66
2018-12-04T18:23:29.763Z,100363.14
2018-12-04T18:26:06.314Z,100365.34
2018-12-04T18:28:41.642Z,100371.24
2018-12-04T18:31:18.125Z,100370.77
2018-12-04T18:33:54.132Z,100380.77
2018-12-04T18:36:31.278Z,100382.25
2018-12-04T18:39:09.427Z,100387.51
2018-12-04T18:41:45.142Z,100386.03
2018-12-04T18:44:20.662Z,100393.16
2018-12-04T18:47:00.751Z,100389.30
2018-12-04T18:49:36.791Z,100390.89
2018-12-04T18:52:12.592Z,100398.79
2018-12-04T18:54:50.960Z,100399.81
2018-12-04T18:57:26.003Z,100404.53
2018-12-04T19:00:01.257Z,100401.27
2018-12-04T19:02:37.568Z,100405.84
2018-12-04T19:05:12.623Z,100413.78
2018-12-04T19:07:49.324Z,100412.97
2018-12-04T19:10:25.134Z,100421.30
2018-12-04T19:15:42.151Z,100418.60
2018-12-04T19:18:18.335Z,100422.14
2018-12-04T19:20:55.200Z,100432.00
2018-12-04T19:23:30.811Z,100430.59
2018-12-04T19:26:06.675Z,100436.33
2018-12-04T19:28:42.000Z,100433.17
2018-12-04T19:31:18.443Z,100440.58
2018-12-04T19:33:54.439Z,100446.04
2018-12-04T19:36:30.329Z,100447.44
2018-12-04T19:39:07.959Z,100446.66
2018-12-04T19:41:43.749Z,100457.29
2018-12-04T19:44:24.491Z,100459.08
2018-12-04T19:47:02.170Z,100461.44
2018-12-04T19:49:37.120Z,100461.47
2018-12-04T19:52:13.075Z,100464.86
2018-12-04T19:54:50.416Z,100469.69
2018-12-04T19:57:26.206Z,100474.16
2018-12-04T20:00:02.284Z,100479.54
2018-12-04T20:02:41.713Z,100477.00
2018-12-04T20:05:16.965Z,100486.30
2018-12-04T20:07:52.458Z,100486.55
2018-12-04T20:10:28.157Z,100489.97
2018-12-04T20:13:03.633Z,100497.38
2018-12-04T20:15:40.358Z,100496.20
2018-12-04T20:18:19.594Z,100500.04
2018-12-04T20:20:56.032Z,100506.05
2018-12-04T20:23:32.067Z,100519.65
2018-12-04T20:26:07.864Z,100516.98
2018-12-04T20:28:44.627Z,100524.03
2018-12-04T20:31:20.339Z,100529.59
2018-12-04T20:33:56.765Z,100534.14
2018-12-04T20:36:35.979Z,100551.30
2018-12-04T20:39:12.046Z,100550.28
2018-12-04T20:41:48.355Z,100556.64
2018-12-04T20:44:23.320Z,100554.36
2018-12-04T20:46:58.826Z,100563.83
2018-12-04T20:49:35.285Z,100570.18
2018-12-04T20:52:11.189Z,100569.91
2018-12-04T20:54:46.225Z,100577.56
2018-12-04T20:57:21.678Z,100577.13
2018-12-04T20:59:57.989Z,100576.61
2018-12-04T21:02:33.842Z,100579.78
2018-12-04T21:05:09.352Z,100588.22
2018-12-04T21:07:45.675Z,100582.42
2018-12-04T21:10:21.747Z,100588.79
2018-12-04T21:13:01.612Z,100591.12
2018-12-04T21:15:38.925Z,100597.05
2018-12-04T21:18:15.151Z,100599.09
2018-12-04T21:20:52.305Z,100595.74
2018-12-04T21:23:27.653Z,100572.71
2018-12-04T21:26:03.191Z,100603.64
2018-12-04T21:28:38.844Z,100609.16
2018-12-04T21:31:20.650Z,100605.02
2018-12-04T21:34:01.268Z,100613.20
2018-12-04T21:36:42.503Z,100611.69
2018-12-04T21:39:19.915Z,100614.55
2018-12-04T21:42:01.126Z,100616.42
2018-12-04T21:44:43.336Z,100619.00
2018-12-04T21:47:24.584Z,100620.86
2018-12-04T21:50:00.356Z,100624.98
2018-12-04T21:52:36.294Z,100625.53
2018-12-04T21:55:11.825Z,100631.38
2018-12-04T21:57:47.665Z,100633.41
2018-12-04T22:00:24.826Z,100642.22
2018-12-04T22:02:59.682Z,100650.52
2018-12-04T22:05:35.356Z,100651.04
2018-12-04T22:08:11.719Z,100651.64
2018-12-04T22:10:47.490Z,100655.09
2018-12-04T22:13:23.110Z,100663.48
2018-12-04T22:15:58.582Z,100669.22
2018-12-04T22:18:34.074Z,100673.69
2018-12-04T22:21:10.062Z,100674.75
2018-12-04T22:23:46.018Z,100672.38
2018-12-04T22:26:21.646Z,100672.06
2018-12-04T22:28:59.615Z,100669.39
2018-12-04T22:31:36.100Z,100680.61
2018-12-04T22:34:12.595Z,100667.84
2018-12-04T22:36:51.064Z,100679.95
2018-12-04T22:39:26.707Z,100687.33
2018-12-04T22:42:02.429Z,100687.38
2018-12-04T22:44:37.958Z,100684.87
2018-12-04T22:47:14.576Z,100680.10
2018-12-04T22:49:50.484Z,100684.06
2018-12-04T22:52:26.551Z,100684.76
2018-12-04T22:55:01.721Z,100679.73
2018-12-04T22:57:37.087Z,100688.39
2018-12-04T23:00:23.701Z,100682.03
2018-12-04T23:02:59.400Z,100678.28
2018-12-04T23:05:34.768Z,100677.39
2018-12-04T23:08:10.441Z,100652.58
2018-12-04T23:10:46.961Z,100679.50
2018-12-04T23:13:22.728Z,100676.94
2018-12-04T23:15:58.297Z,100677.14
2018-12-04T23:18:34.283Z,100681.29
2018-12-04T23:21:10.260Z,100674.98
2018-12-04T23:23:45.833Z,100677.78
2018-12-04T23:26:22.225Z,100676.89
2018-12-04T23:28:58.673Z,100676.77
2018-12-04T23:31:34.575Z,100681.91
2018-12-04T23:34:10.145Z,100682.31
2018-12-04T23:36:45.847Z,100664.27
2018-12-04T23:39:21.463Z,100680.84
2018-12-04T23:41:56.818Z,100675.27
2018-12-04T23:44:32.613Z,100678.86
2018-12-04T23:47:08.216Z,100680.25
2018-12-04T23:49:43.840Z,100687.17
2018-12-04T23:52:19.072Z,100670.16
2018-12-04T23:54:54.706Z,100676.45
2018-12-04T23:57:30.949Z,100686.46
